sensor_id;sensor_type;location;lat;lon;timestamp;temperature;humidity
44487;DHT22;30191;50.908;6.962;2024-03-02T00:01:58;10.30;99.90
44487;DHT22;30191;50.908;6.962;2024-03-02T00:04:24;10.40;99.90
44487;DHT22;30191;50.908;6.962;2024-03-02T00:06:52;10.30;99.90
44487;DHT22;30191;50.908;6.962;2024-03-02T00:09:20;10.30;99.90
44487;DHT22;30191;50.908;6.962;2024-03-02T00:11:46;10.40;99.90
44487;DHT22;30191;50.908;6.962;2024-03-02T00:14:12;10.40;99.90
44487;DHT22;30191;50.908;6.962;2024-03-02T00:16:38;10.50;99.90
44487;DHT22;30191;50.908;6.962;2024-03-02T00:19:05;10.40;99.90
44487;DHT22;30191;50.908;6.962;2024-03-02T00:21:31;10.30;99.90
44487;DHT22;30191;50.908;6.962;2024-03-02T00:23:58;10.30;99.90
44487;DHT22;30191;50.908;6.962;2024-03-02T00:26:23;10.40;99.90
44487;DHT22;30191;50.908;6.962;2024-03-02T00:28:49;10.40;99.90
44487;DHT22;30191;50.908;6.962;2024-03-02T00:31:20;10.40;99.90
44487;DHT22;30191;50.908;6.962;2024-03-02T00:33:47;10.40;99.90
44487;DHT22;30191;50.908;6.962;2024-03-02T00:36:15;10.40;99.90
44487;DHT22;30191;50.908;6.962;2024-03-02T00:38:52;10.50;99.90
44487;DHT22;30191;50.908;6.962;2024-03-02T00:46:24;10.50;99.90
44487;DHT22;30191;50.908;6.962;2024-03-02T00:48:58;10.50;99.90
44487;DHT22;30191;50.908;6.962;2024-03-02T00:51:25;10.50;99.90
44487;DHT22;30191;50.908;6.962;2024-03-02T00:53:53;10.50;99.90
44487;DHT22;30191;50.908;6.962;2024-03-02T00:56:21;10.50;99.90
44487;DHT22;30191;50.908;6.962;2024-03-02T00:58:47;10.50;99.90
44487;DHT22;30191;50.908;6.962;2024-03-02T01:01:13;10.50;99.90
44487;DHT22;30191;50.908;6.962;2024-03-02T01:03:38;10.40;99.90
44487;DHT22;30191;50.908;6.962;2024-03-02T01:06:04;10.40;99.90
44487;DHT22;30191;50.908;6.962;2024-03-02T01:08:30;10.40;99.90
44487;DHT22;30191;50.908;6.962;2024-03-02T01:10:56;10.40;99.90
44487;DHT22;30191;50.908;6.962;2024-03-02T01:13:22;10.40;99.90
44487;DHT22;30191;50.908;6.962;2024-03-02T01:15:49;10.40;99.90
44487;DHT22;30191;50.908;6.962;2024-03-02T01:18:14;10.40;99.90
44487;DHT22;30191;50.908;6.962;2024-03-02T01:20:40;10.40;99.90
44487;DHT22;30191;50.908;6.962;2024-03-02T01:23:06;10.30;99.90
44487;DHT22;30191;50.908;6.962;2024-03-02T01:25:31;10.30;99.90
44487;DHT22;30191;50.908;6.962;2024-03-02T01:27:57;10.20;99.90
44487;DHT22;30191;50.908;6.962;2024-03-02T01:30:23;10.20;99.90
44487;DHT22;30191;50.908;6.962;2024-03-02T01:32:48;10.20;99.90
44487;DHT22;30191;50.908;6.962;2024-03-02T01:35:14;10.20;99.90
44487;DHT22;30191;50.908;6.962;2024-03-02T01:37:41;10.20;99.90
44487;DHT22;30191;50.908;6.962;2024-03-02T01:40:07;10.10;99.90
44487;DHT22;30191;50.908;6.962;2024-03-02T01:42:38;10.10;99.90
44487;DHT22;30191;50.908;6.962;2024-03-02T01:45:05;10.10;99.90
44487;DHT22;30191;50.908;6.962;2024-03-02T01:47:31;10.10;99.90
44487;DHT22;30191;50.908;6.962;2024-03-02T01:49:58;10.10;99.90
44487;DHT22;30191;50.908;6.962;2024-03-02T01:52:23;10.10;99.90
44487;DHT22;30191;50.908;6.962;2024-03-02T01:54:49;10.10;99.90
44487;DHT22;30191;50.908;6.962;2024-03-02T01:57:15;10.10;99.90
44487;DHT22;30191;50.908;6.962;2024-03-02T01:59:41;10.10;99.90
44487;DHT22;30191;50.908;6.962;2024-03-02T02:02:07;10.20;99.90
44487;DHT22;30191;50.908;6.962;2024-03-02T02:04:33;10.20;99.90
44487;DHT22;30191;50.908;6.962;2024-03-02T02:06:59;10.10;99.90
44487;DHT22;30191;50.908;6.962;2024-03-02T02:09:25;10.10;99.90
44487;DHT22;30191;50.908;6.962;2024-03-02T02:11:51;10.10;99.90
44487;DHT22;30191;50.908;6.962;2024-03-02T02:14:17;10.10;99.90
44487;DHT22;30191;50.908;6.962;2024-03-02T02:16:42;10.10;99.90
44487;DHT22;30191;50.908;6.962;2024-03-02T02:19:08;10.10;99.90
44487;DHT22;30191;50.908;6.962;2024-03-02T02:21:35;10.10;99.90
44487;DHT22;30191;50.908;6.962;2024-03-02T02:24:00;10.10;99.90
44487;DHT22;30191;50.908;6.962;2024-03-02T02:26:28;10.10;99.90
44487;DHT22;30191;50.908;6.962;2024-03-02T02:28:54;10.10;99.90
44487;DHT22;30191;50.908;6.962;2024-03-02T02:31:20;10.10;99.90
44487;DHT22;30191;50.908;6.962;2024-03-02T02:33:45;10.20;99.90
44487;DHT22;30191;50.908;6.962;2024-03-02T02:36:11;10.10;99.90
44487;DHT22;30191;50.908;6.962;2024-03-02T02:38:40;10.20;99.90
44487;DHT22;30191;50.908;6.962;2024-03-02T02:41:08;10.20;99.90
44487;DHT22;30191;50.908;6.962;2024-03-02T02:43:34;10.20;99.90
44487;DHT22;30191;50.908;6.962;2024-03-02T02:45:59;10.20;99.90
44487;DHT22;30191;50.908;6.962;2024-03-02T02:48:25;10.20;99.90
44487;DHT22;30191;50.908;6.962;2024-03-02T02:50:50;10.20;99.90
44487;DHT22;30191;50.908;6.962;2024-03-02T02:53:16;10.20;99.90
44487;DHT22;30191;50.908;6.962;2024-03-02T02:55:42;10.20;99.90
44487;DHT22;30191;50.908;6.962;2024-03-02T02:58:09;10.20;99.90
44487;DHT22;30191;50.908;6.962;2024-03-02T03:00:35;10.20;99.90
44487;DHT22;30191;50.908;6.962;2024-03-02T03:03:02;10.30;99.90
44487;DHT22;30191;50.908;6.962;2024-03-02T03:05:28;10.20;99.90
44487;DHT22;30191;50.908;6.962;2024-03-02T03:07:53;10.20;99.90
44487;DHT22;30191;50.908;6.962;2024-03-02T03:10:19;10.20;99.90
44487;DHT22;30191;50.908;6.962;2024-03-02T03:12:47;10.20;99.90
44487;DHT22;30191;50.908;6.962;2024-03-02T03:15:13;10.10;99.90
44487;DHT22;30191;50.908;6.962;2024-03-02T03:17:40;10.20;99.90
44487;DHT22;30191;50.908;6.962;2024-03-02T03:20:06;10.10;99.90
44487;DHT22;30191;50.908;6.962;2024-03-02T03:22:35;10.10;99.90
44487;DHT22;30191;50.908;6.962;2024-03-02T03:25:01;10.10;99.90
44487;DHT22;30191;50.908;6.962;2024-03-02T03:27:27;10.10;99.90
44487;DHT22;30191;50.908;6.962;2024-03-02T03:29:52;10.10;99.90
44487;DHT22;30191;50.908;6.962;2024-03-02T03:32:18;10.10;99.90
44487;DHT22;30191;50.908;6.962;2024-03-02T03:34:43;10.10;99.90
44487;DHT22;30191;50.908;6.962;2024-03-02T03:37:09;10.00;99.90
44487;DHT22;30191;50.908;6.962;2024-03-02T03:39:35;10.10;99.90
44487;DHT22;30191;50.908;6.962;2024-03-02T03:42:04;10.10;99.90
44487;DHT22;30191;50.908;6.962;2024-03-02T03:44:29;10.10;99.90
44487;DHT22;30191;50.908;6.962;2024-03-02T03:46:55;10.10;99.90
44487;DHT22;30191;50.908;6.962;2024-03-02T03:49:21;10.10;99.90
44487;DHT22;30191;50.908;6.962;2024-03-02T03:51:46;10.00;99.90
44487;DHT22;30191;50.908;6.962;2024-03-02T03:54:12;10.00;99.90
44487;DHT22;30191;50.908;6.962;2024-03-02T03:56:38;9.90;99.90
44487;DHT22;30191;50.908;6.962;2024-03-02T03:59:04;10.00;99.90
44487;DHT22;30191;50.908;6.962;2024-03-02T04:01:30;10.00;99.90
44487;DHT22;30191;50.908;6.962;2024-03-02T04:03:57;10.00;99.90
44487;DHT22;30191;50.908;6.962;2024-03-02T04:06:23;9.90;99.90
44487;DHT22;30191;50.908;6.962;2024-03-02T04:08:48;10.00;99.90
44487;DHT22;30191;50.908;6.962;2024-03-02T04:11:14;10.00;99.90
44487;DHT22;30191;50.908;6.962;2024-03-02T04:13:40;9.90;99.90
44487;DHT22;30191;50.908;6.962;2024-03-02T04:16:05;9.90;99.90
44487;DHT22;30191;50.908;6.962;2024-03-02T04:18:31;9.90;99.90
44487;DHT22;30191;50.908;6.962;2024-03-02T04:21:00;9.80;99.90
44487;DHT22;30191;50.908;6.962;2024-03-02T04:23:29;9.80;99.90
44487;DHT22;30191;50.908;6.962;2024-03-02T04:25:54;9.80;99.90
44487;DHT22;30191;50.908;6.962;2024-03-02T04:28:20;9.80;99.90
44487;DHT22;30191;50.908;6.962;2024-03-02T04:30:47;9.90;99.90
44487;DHT22;30191;50.908;6.962;2024-03-02T04:33:12;9.80;99.90
44487;DHT22;30191;50.908;6.962;2024-03-02T04:35:38;9.80;99.90
44487;DHT22;30191;50.908;6.962;2024-03-02T04:38:04;9.80;99.90
44487;DHT22;30191;50.908;6.962;2024-03-02T04:40:29;9.80;99.90
44487;DHT22;30191;50.908;6.962;2024-03-02T04:42:55;9.80;99.90
44487;DHT22;30191;50.908;6.962;2024-03-02T04:45:20;9.70;99.90
44487;DHT22;30191;50.908;6.962;2024-03-02T04:47:46;9.70;99.90
44487;DHT22;30191;50.908;6.962;2024-03-02T04:50:12;9.70;99.90
44487;DHT22;30191;50.908;6.962;2024-03-02T04:52:37;9.70;99.90
44487;DHT22;30191;50.908;6.962;2024-03-02T04:55:03;9.70;99.90
44487;DHT22;30191;50.908;6.962;2024-03-02T04:57:35;9.60;99.90
44487;DHT22;30191;50.908;6.962;2024-03-02T05:00:01;9.60;99.90
44487;DHT22;30191;50.908;6.962;2024-03-02T05:02:27;9.60;99.90
44487;DHT22;30191;50.908;6.962;2024-03-02T05:04:52;9.60;99.90
44487;DHT22;30191;50.908;6.962;2024-03-02T05:07:18;9.60;99.90
44487;DHT22;30191;50.908;6.962;2024-03-02T05:09:43;9.60;99.90
44487;DHT22;30191;50.908;6.962;2024-03-02T05:12:10;9.60;99.90
44487;DHT22;30191;50.908;6.962;2024-03-02T05:14:54;9.50;99.90
44487;DHT22;30191;50.908;6.962;2024-03-02T05:17:19;9.50;99.90
44487;DHT22;30191;50.908;6.962;2024-03-02T05:19:45;9.50;99.90
44487;DHT22;30191;50.908;6.962;2024-03-02T05:22:11;9.50;99.90
44487;DHT22;30191;50.908;6.962;2024-03-02T05:24:36;9.50;99.90
44487;DHT22;30191;50.908;6.962;2024-03-02T05:27:02;9.50;99.90
44487;DHT22;30191;50.908;6.962;2024-03-02T05:29:27;9.50;99.90
44487;DHT22;30191;50.908;6.962;2024-03-02T05:31:53;9.50;99.90
44487;DHT22;30191;50.908;6.962;2024-03-02T05:34:19;9.50;99.90
44487;DHT22;30191;50.908;6.962;2024-03-02T05:36:44;9.40;99.90
44487;DHT22;30191;50.908;6.962;2024-03-02T05:39:10;9.40;99.90
44487;DHT22;30191;50.908;6.962;2024-03-02T05:41:36;9.40;99.90
44487;DHT22;30191;50.908;6.962;2024-03-02T05:44:01;9.40;99.90
44487;DHT22;30191;50.908;6.962;2024-03-02T05:46:27;9.40;99.90
44487;DHT22;30191;50.908;6.962;2024-03-02T05:48:53;9.30;99.90
44487;DHT22;30191;50.908;6.962;2024-03-02T05:51:19;9.30;99.90
44487;DHT22;30191;50.908;6.962;2024-03-02T05:53:44;9.30;99.90
44487;DHT22;30191;50.908;6.962;2024-03-02T05:56:10;9.20;99.90
44487;DHT22;30191;50.908;6.962;2024-03-02T05:58:37;9.20;99.90
44487;DHT22;30191;50.908;6.962;2024-03-02T06:01:32;9.20;99.90
44487;DHT22;30191;50.908;6.962;2024-03-02T06:03:58;9.30;99.90
44487;DHT22;30191;50.908;6.962;2024-03-02T06:06:24;9.30;99.90
44487;DHT22;30191;50.908;6.962;2024-03-02T06:08:50;9.40;99.90
44487;DHT22;30191;50.908;6.962;2024-03-02T06:11:16;9.40;99.90
44487;DHT22;30191;50.908;6.962;2024-03-02T06:13:42;9.40;99.90
44487;DHT22;30191;50.908;6.962;2024-03-02T06:16:07;9.40;99.90
44487;DHT22;30191;50.908;6.962;2024-03-02T06:18:34;9.50;99.90
44487;DHT22;30191;50.908;6.962;2024-03-02T06:20:59;9.40;99.90
44487;DHT22;30191;50.908;6.962;2024-03-02T06:23:26;9.40;99.90
44487;DHT22;30191;50.908;6.962;2024-03-02T06:25:52;9.40;99.90
44487;DHT22;30191;50.908;6.962;2024-03-02T06:28:18;9.40;99.90
44487;DHT22;30191;50.908;6.962;2024-03-02T06:30:43;9.40;99.90
44487;DHT22;30191;50.908;6.962;2024-03-02T06:33:09;9.40;99.90
44487;DHT22;30191;50.908;6.962;2024-03-02T06:35:35;9.40;99.90
44487;DHT22;30191;50.908;6.962;2024-03-02T06:38:01;9.40;99.90
44487;DHT22;30191;50.908;6.962;2024-03-02T06:40:27;9.40;99.90
44487;DHT22;30191;50.908;6.962;2024-03-02T06:42:52;9.50;99.90
44487;DHT22;30191;50.908;6.962;2024-03-02T06:45:18;9.50;99.90
44487;DHT22;30191;50.908;6.962;2024-03-02T06:47:44;9.50;99.90
44487;DHT22;30191;50.908;6.962;2024-03-02T06:50:10;9.50;99.90
44487;DHT22;30191;50.908;6.962;2024-03-02T06:52:36;9.50;99.90
44487;DHT22;30191;50.908;6.962;2024-03-02T06:55:02;9.50;99.90
44487;DHT22;30191;50.908;6.962;2024-03-02T06:57:27;9.50;99.90
44487;DHT22;30191;50.908;6.962;2024-03-02T06:59:53;9.50;99.90
44487;DHT22;30191;50.908;6.962;2024-03-02T07:02:22;9.50;99.90
44487;DHT22;30191;50.908;6.962;2024-03-02T07:04:48;9.50;99.90
44487;DHT22;30191;50.908;6.962;2024-03-02T07:07:14;9.50;99.90
44487;DHT22;30191;50.908;6.962;2024-03-02T07:09:39;9.50;99.90
44487;DHT22;30191;50.908;6.962;2024-03-02T07:12:05;9.50;99.90
44487;DHT22;30191;50.908;6.962;2024-03-02T07:14:31;9.50;99.90
44487;DHT22;30191;50.908;6.962;2024-03-02T07:17:15;9.50;99.90
44487;DHT22;30191;50.908;6.962;2024-03-02T07:19:40;9.60;99.90
44487;DHT22;30191;50.908;6.962;2024-03-02T07:22:06;9.60;99.90
44487;DHT22;30191;50.908;6.962;2024-03-02T07:24:39;9.70;99.90
44487;DHT22;30191;50.908;6.962;2024-03-02T07:27:06;9.60;99.90
44487;DHT22;30191;50.908;6.962;2024-03-02T07:29:31;9.60;99.90
44487;DHT22;30191;50.908;6.962;2024-03-02T07:31:57;9.70;99.90
44487;DHT22;30191;50.908;6.962;2024-03-02T07:34:22;9.70;99.90
44487;DHT22;30191;50.908;6.962;2024-03-02T07:36:48;9.70;99.90
44487;DHT22;30191;50.908;6.962;2024-03-02T07:39:14;9.70;99.90
44487;DHT22;30191;50.908;6.962;2024-03-02T07:41:39;9.70;99.90
44487;DHT22;30191;50.908;6.962;2024-03-02T07:44:05;9.80;99.90
44487;DHT22;30191;50.908;6.962;2024-03-02T07:46:31;9.80;99.90
44487;DHT22;30191;50.908;6.962;2024-03-02T07:48:56;9.80;99.90
44487;DHT22;30191;50.908;6.962;2024-03-02T07:51:22;9.70;99.90
44487;DHT22;30191;50.908;6.962;2024-03-02T07:53:47;9.80;99.90
44487;DHT22;30191;50.908;6.962;2024-03-02T07:56:13;9.90;99.90
44487;DHT22;30191;50.908;6.962;2024-03-02T07:58:39;10.00;99.90
44487;DHT22;30191;50.908;6.962;2024-03-02T08:01:04;9.90;99.90
44487;DHT22;30191;50.908;6.962;2024-03-02T08:03:30;10.00;99.90
44487;DHT22;30191;50.908;6.962;2024-03-02T08:05:57;10.00;99.90
44487;DHT22;30191;50.908;6.962;2024-03-02T08:08:23;10.00;99.90
44487;DHT22;30191;50.908;6.962;2024-03-02T08:10:48;9.90;99.90
44487;DHT22;30191;50.908;6.962;2024-03-02T08:13:14;10.00;99.90
44487;DHT22;30191;50.908;6.962;2024-03-02T08:15:40;10.00;99.90
44487;DHT22;30191;50.908;6.962;2024-03-02T08:18:06;10.00;99.90
44487;DHT22;30191;50.908;6.962;2024-03-02T08:20:31;10.10;99.90
44487;DHT22;30191;50.908;6.962;2024-03-02T08:22:57;10.20;99.90
44487;DHT22;30191;50.908;6.962;2024-03-02T08:25:23;10.30;99.90
44487;DHT22;30191;50.908;6.962;2024-03-02T08:27:48;10.30;99.90
44487;DHT22;30191;50.908;6.962;2024-03-02T08:30:14;10.40;99.90
44487;DHT22;30191;50.908;6.962;2024-03-02T08:32:40;10.40;99.90
44487;DHT22;30191;50.908;6.962;2024-03-02T08:35:06;10.40;99.90
44487;DHT22;30191;50.908;6.962;2024-03-02T08:37:32;10.50;99.90
44487;DHT22;30191;50.908;6.962;2024-03-02T08:39:57;10.50;99.90
44487;DHT22;30191;50.908;6.962;2024-03-02T08:42:23;10.50;99.90
44487;DHT22;30191;50.908;6.962;2024-03-02T08:44:49;10.50;99.90
44487;DHT22;30191;50.908;6.962;2024-03-02T08:47:15;10.60;99.90
44487;DHT22;30191;50.908;6.962;2024-03-02T08:49:41;10.60;99.90
44487;DHT22;30191;50.908;6.962;2024-03-02T08:52:06;10.60;99.90
44487;DHT22;30191;50.908;6.962;2024-03-02T08:54:32;10.60;99.90
44487;DHT22;30191;50.908;6.962;2024-03-02T08:56:59;10.60;99.90
44487;DHT22;30191;50.908;6.962;2024-03-02T08:59:25;10.60;99.90
44487;DHT22;30191;50.908;6.962;2024-03-02T09:01:53;10.70;99.90
44487;DHT22;30191;50.908;6.962;2024-03-02T09:04:18;10.80;99.90
44487;DHT22;30191;50.908;6.962;2024-03-02T09:06:44;10.80;99.90
44487;DHT22;30191;50.908;6.962;2024-03-02T09:09:10;10.80;99.90
44487;DHT22;30191;50.908;6.962;2024-03-02T09:11:35;10.80;99.90
44487;DHT22;30191;50.908;6.962;2024-03-02T09:14:01;10.90;99.90
44487;DHT22;30191;50.908;6.962;2024-03-02T09:16:27;10.90;99.90
44487;DHT22;30191;50.908;6.962;2024-03-02T09:18:56;10.90;99.90
44487;DHT22;30191;50.908;6.962;2024-03-02T09:21:22;11.10;99.90
44487;DHT22;30191;50.908;6.962;2024-03-02T09:23:48;11.10;99.90
44487;DHT22;30191;50.908;6.962;2024-03-02T09:26:14;11.20;99.90
44487;DHT22;30191;50.908;6.962;2024-03-02T09:28:43;11.20;99.90
44487;DHT22;30191;50.908;6.962;2024-03-02T09:31:09;11.20;99.90
44487;DHT22;30191;50.908;6.962;2024-03-02T09:33:35;11.30;99.90
44487;DHT22;30191;50.908;6.962;2024-03-02T09:36:00;11.30;99.90
44487;DHT22;30191;50.908;6.962;2024-03-02T09:38:26;11.40;99.90
44487;DHT22;30191;50.908;6.962;2024-03-02T09:40:51;11.50;99.90
44487;DHT22;30191;50.908;6.962;2024-03-02T09:43:17;11.50;99.90
44487;DHT22;30191;50.908;6.962;2024-03-02T09:45:45;11.60;99.90
44487;DHT22;30191;50.908;6.962;2024-03-02T09:48:10;11.60;99.90
44487;DHT22;30191;50.908;6.962;2024-03-02T09:50:36;11.70;99.90
44487;DHT22;30191;50.908;6.962;2024-03-02T09:53:02;11.70;99.90
44487;DHT22;30191;50.908;6.962;2024-03-02T09:55:27;11.70;99.90
44487;DHT22;30191;50.908;6.962;2024-03-02T09:57:53;11.60;99.90
44487;DHT22;30191;50.908;6.962;2024-03-02T10:00:19;11.60;99.90
44487;DHT22;30191;50.908;6.962;2024-03-02T10:02:44;11.60;99.90
44487;DHT22;30191;50.908;6.962;2024-03-02T10:05:23;11.60;99.90
44487;DHT22;30191;50.908;6.962;2024-03-02T10:08:02;11.60;99.90
44487;DHT22;30191;50.908;6.962;2024-03-02T10:10:38;11.60;99.90
44487;DHT22;30191;50.908;6.962;2024-03-02T10:13:12;11.60;99.90
44487;DHT22;30191;50.908;6.962;2024-03-02T10:15:39;11.60;99.90
44487;DHT22;30191;50.908;6.962;2024-03-02T10:18:11;11.60;99.90
44487;DHT22;30191;50.908;6.962;2024-03-02T10:20:38;11.60;99.90
44487;DHT22;30191;50.908;6.962;2024-03-02T10:23:15;11.60;99.90
44487;DHT22;30191;50.908;6.962;2024-03-02T10:25:42;11.70;99.90
44487;DHT22;30191;50.908;6.962;2024-03-02T10:28:08;11.70;99.90
44487;DHT22;30191;50.908;6.962;2024-03-02T10:30:34;11.80;99.90
44487;DHT22;30191;50.908;6.962;2024-03-02T10:33:01;11.80;99.90
44487;DHT22;30191;50.908;6.962;2024-03-02T10:35:27;11.80;99.90
44487;DHT22;30191;50.908;6.962;2024-03-02T10:37:53;11.90;99.90
44487;DHT22;30191;50.908;6.962;2024-03-02T10:40:22;12.00;99.90
44487;DHT22;30191;50.908;6.962;2024-03-02T10:42:50;12.00;99.90
44487;DHT22;30191;50.908;6.962;2024-03-02T10:45:16;12.10;99.90
44487;DHT22;30191;50.908;6.962;2024-03-02T10:47:47;12.00;99.90
44487;DHT22;30191;50.908;6.962;2024-03-02T10:50:12;12.10;99.90
44487;DHT22;30191;50.908;6.962;2024-03-02T10:52:38;12.10;99.90
44487;DHT22;30191;50.908;6.962;2024-03-02T10:55:11;12.10;99.90
44487;DHT22;30191;50.908;6.962;2024-03-02T11:00:15;12.30;99.90
44487;DHT22;30191;50.908;6.962;2024-03-02T11:02:52;12.30;99.90
44487;DHT22;30191;50.908;6.962;2024-03-02T11:05:28;12.40;99.90
44487;DHT22;30191;50.908;6.962;2024-03-02T11:08:01;12.40;99.90
44487;DHT22;30191;50.908;6.962;2024-03-02T11:11:13;12.40;99.90
44487;DHT22;30191;50.908;6.962;2024-03-02T11:13:44;12.40;99.90
44487;DHT22;30191;50.908;6.962;2024-03-02T11:16:31;12.40;99.90
44487;DHT22;30191;50.908;6.962;2024-03-02T11:19:04;12.40;99.90
44487;DHT22;30191;50.908;6.962;2024-03-02T11:21:33;12.40;99.90
44487;DHT22;30191;50.908;6.962;2024-03-02T11:23:59;12.50;99.90
44487;DHT22;30191;50.908;6.962;2024-03-02T11:26:24;12.50;99.90
44487;DHT22;30191;50.908;6.962;2024-03-02T11:28:50;12.60;99.90
44487;DHT22;30191;50.908;6.962;2024-03-02T11:31:16;12.60;99.90
44487;DHT22;30191;50.908;6.962;2024-03-02T11:33:42;12.70;99.90
44487;DHT22;30191;50.908;6.962;2024-03-02T11:36:09;12.80;99.90
44487;DHT22;30191;50.908;6.962;2024-03-02T11:38:35;12.80;99.90
44487;DHT22;30191;50.908;6.962;2024-03-02T11:41:02;12.90;99.90
44487;DHT22;30191;50.908;6.962;2024-03-02T11:43:32;12.90;99.90
44487;DHT22;30191;50.908;6.962;2024-03-02T11:46:03;13.00;99.90
44487;DHT22;30191;50.908;6.962;2024-03-02T11:48:32;13.10;99.90
44487;DHT22;30191;50.908;6.962;2024-03-02T11:50:58;13.20;99.90
44487;DHT22;30191;50.908;6.962;2024-03-02T11:53:27;13.30;99.90
44487;DHT22;30191;50.908;6.962;2024-03-02T11:55:55;13.30;99.90
44487;DHT22;30191;50.908;6.962;2024-03-02T11:58:21;13.50;99.90
44487;DHT22;30191;50.908;6.962;2024-03-02T12:00:55;13.60;99.90
44487;DHT22;30191;50.908;6.962;2024-03-02T12:03:25;13.70;99.90
44487;DHT22;30191;50.908;6.962;2024-03-02T12:05:53;13.70;99.90
44487;DHT22;30191;50.908;6.962;2024-03-02T12:08:19;13.70;99.90
44487;DHT22;30191;50.908;6.962;2024-03-02T12:10:57;13.70;99.90
44487;DHT22;30191;50.908;6.962;2024-03-02T12:13:22;13.70;99.90
44487;DHT22;30191;50.908;6.962;2024-03-02T12:15:53;13.70;99.90
44487;DHT22;30191;50.908;6.962;2024-03-02T12:18:20;13.70;99.90
44487;DHT22;30191;50.908;6.962;2024-03-02T12:20:46;13.80;99.90
44487;DHT22;30191;50.908;6.962;2024-03-02T12:23:13;13.80;99.90
44487;DHT22;30191;50.908;6.962;2024-03-02T12:25:39;14.00;99.90
44487;DHT22;30191;50.908;6.962;2024-03-02T12:28:05;14.10;99.90
44487;DHT22;30191;50.908;6.962;2024-03-02T12:30:34;14.20;99.90
44487;DHT22;30191;50.908;6.962;2024-03-02T12:33:00;14.30;99.90
44487;DHT22;30191;50.908;6.962;2024-03-02T12:35:26;14.50;99.90
44487;DHT22;30191;50.908;6.962;2024-03-02T12:37:53;14.50;99.90
44487;DHT22;30191;50.908;6.962;2024-03-02T12:40:19;14.60;99.90
44487;DHT22;30191;50.908;6.962;2024-03-02T12:42:46;14.70;99.90
44487;DHT22;30191;50.908;6.962;2024-03-02T12:45:13;14.80;99.90
44487;DHT22;30191;50.908;6.962;2024-03-02T12:47:40;14.90;99.90
44487;DHT22;30191;50.908;6.962;2024-03-02T12:50:06;14.90;99.90
44487;DHT22;30191;50.908;6.962;2024-03-02T12:52:32;15.10;99.90
44487;DHT22;30191;50.908;6.962;2024-03-02T12:55:00;15.20;99.90
44487;DHT22;30191;50.908;6.962;2024-03-02T12:57:26;15.20;99.90
44487;DHT22;30191;50.908;6.962;2024-03-02T12:59:58;15.30;99.90
44487;DHT22;30191;50.908;6.962;2024-03-02T13:02:23;15.30;99.90
44487;DHT22;30191;50.908;6.962;2024-03-02T13:04:53;15.50;99.90
44487;DHT22;30191;50.908;6.962;2024-03-02T13:07:20;15.50;99.90
44487;DHT22;30191;50.908;6.962;2024-03-02T13:09:47;15.50;99.90
44487;DHT22;30191;50.908;6.962;2024-03-02T13:12:19;15.50;99.90
44487;DHT22;30191;50.908;6.962;2024-03-02T13:14:47;15.40;99.90
44487;DHT22;30191;50.908;6.962;2024-03-02T13:17:13;15.30;99.90
44487;DHT22;30191;50.908;6.962;2024-03-02T13:19:56;15.20;99.90
44487;DHT22;30191;50.908;6.962;2024-03-02T13:22:22;15.10;99.90
44487;DHT22;30191;50.908;6.962;2024-03-02T13:24:49;15.00;99.90
44487;DHT22;30191;50.908;6.962;2024-03-02T13:27:15;14.90;99.90
44487;DHT22;30191;50.908;6.962;2024-03-02T13:29:42;14.90;99.90
44487;DHT22;30191;50.908;6.962;2024-03-02T13:32:07;14.90;99.90
44487;DHT22;30191;50.908;6.962;2024-03-02T13:34:35;15.10;99.90
44487;DHT22;30191;50.908;6.962;2024-03-02T13:37:01;15.40;99.90
44487;DHT22;30191;50.908;6.962;2024-03-02T13:39:27;16.00;99.90
44487;DHT22;30191;50.908;6.962;2024-03-02T13:41:56;16.30;99.90
44487;DHT22;30191;50.908;6.962;2024-03-02T13:44:29;16.90;99.90
44487;DHT22;30191;50.908;6.962;2024-03-02T13:46:54;17.30;99.70
44487;DHT22;30191;50.908;6.962;2024-03-02T13:49:20;18.20;99.00
44487;DHT22;30191;50.908;6.962;2024-03-02T13:51:45;19.10;97.40
44487;DHT22;30191;50.908;6.962;2024-03-02T13:54:11;19.60;96.80
44487;DHT22;30191;50.908;6.962;2024-03-02T13:56:37;19.60;96.00
44487;DHT22;30191;50.908;6.962;2024-03-02T13:59:04;19.00;96.30
44487;DHT22;30191;50.908;6.962;2024-03-02T14:01:31;18.50;96.90
44487;DHT22;30191;50.908;6.962;2024-03-02T14:03:58;18.30;97.40
44487;DHT22;30191;50.908;6.962;2024-03-02T14:06:24;18.20;97.60
44487;DHT22;30191;50.908;6.962;2024-03-02T14:08:52;17.90;97.90
44487;DHT22;30191;50.908;6.962;2024-03-02T14:11:18;17.50;98.20
44487;DHT22;30191;50.908;6.962;2024-03-02T14:13:44;17.10;98.40
44487;DHT22;30191;50.908;6.962;2024-03-02T14:16:15;16.90;99.00
44487;DHT22;30191;50.908;6.962;2024-03-02T14:18:41;16.70;99.20
44487;DHT22;30191;50.908;6.962;2024-03-02T14:21:08;16.50;99.30
44487;DHT22;30191;50.908;6.962;2024-03-02T14:23:33;16.30;99.80
44487;DHT22;30191;50.908;6.962;2024-03-02T14:25:59;16.10;99.90
44487;DHT22;30191;50.908;6.962;2024-03-02T14:28:25;16.00;99.90
44487;DHT22;30191;50.908;6.962;2024-03-02T14:30:51;15.80;99.90
44487;DHT22;30191;50.908;6.962;2024-03-02T14:33:16;15.70;99.90
44487;DHT22;30191;50.908;6.962;2024-03-02T14:35:44;15.50;99.90
44487;DHT22;30191;50.908;6.962;2024-03-02T14:38:11;15.40;99.90
44487;DHT22;30191;50.908;6.962;2024-03-02T14:40:37;15.20;99.90
44487;DHT22;30191;50.908;6.962;2024-03-02T14:43:02;15.10;99.90
44487;DHT22;30191;50.908;6.962;2024-03-02T14:45:28;15.00;99.90
44487;DHT22;30191;50.908;6.962;2024-03-02T14:47:54;14.90;99.90
44487;DHT22;30191;50.908;6.962;2024-03-02T14:50:21;14.90;99.90
44487;DHT22;30191;50.908;6.962;2024-03-02T14:52:47;14.90;99.90
44487;DHT22;30191;50.908;6.962;2024-03-02T14:55:12;14.90;99.90
44487;DHT22;30191;50.908;6.962;2024-03-02T14:57:38;14.80;99.90
44487;DHT22;30191;50.908;6.962;2024-03-02T15:00:04;14.70;99.90
44487;DHT22;30191;50.908;6.962;2024-03-02T15:02:33;14.70;99.90
44487;DHT22;30191;50.908;6.962;2024-03-02T15:04:59;14.70;99.90
44487;DHT22;30191;50.908;6.962;2024-03-02T15:07:25;14.70;99.90
44487;DHT22;30191;50.908;6.962;2024-03-02T15:09:51;14.70;99.90
44487;DHT22;30191;50.908;6.962;2024-03-02T15:12:16;14.60;99.90
44487;DHT22;30191;50.908;6.962;2024-03-02T15:14:43;14.70;99.90
44487;DHT22;30191;50.908;6.962;2024-03-02T15:17:16;14.70;99.90
44487;DHT22;30191;50.908;6.962;2024-03-02T15:19:42;14.80;99.90
44487;DHT22;30191;50.908;6.962;2024-03-02T15:22:08;14.70;99.90
44487;DHT22;30191;50.908;6.962;2024-03-02T15:24:34;14.80;99.90
44487;DHT22;30191;50.908;6.962;2024-03-02T15:27:00;14.80;99.90
44487;DHT22;30191;50.908;6.962;2024-03-02T15:29:29;14.80;99.90
44487;DHT22;30191;50.908;6.962;2024-03-02T15:31:56;14.70;99.90
44487;DHT22;30191;50.908;6.962;2024-03-02T15:34:22;14.70;99.90
44487;DHT22;30191;50.908;6.962;2024-03-02T15:36:49;14.70;99.90
44487;DHT22;30191;50.908;6.962;2024-03-02T15:39:14;14.60;99.90
44487;DHT22;30191;50.908;6.962;2024-03-02T15:41:40;14.60;99.90